Time;durP1;ratioP1;P1;durP2;ratioP2;P2;SDS_P1;SDS_P2;PMS_P1;PMS_P2;Temp;Humidity;BMP_temperature;BMP_pressure;BME280_temperature;BME280_humidity;BME280_pressure;Samples;Min_cycle;Max_cycle;Signal;HPM_P1;HPM_P2
2022/12/16 00:01:07;;;;;;;37.40;23.17;;;;;;;-2.07;100.00;150844.06;5053751;28;20673;-84
2022/12/16 00:03:54;;;;;;;40.27;24.40;;;;;;;-2.11;100.00;150835.09;5066277;28;20457;-83
2022/12/16 00:06:39;;;;;;;33.67;22.97;;;;;;;-2.05;100.00;150850.47;5059204;28;20513;-83
2022/12/16 00:09:24;;;;;;;36.40;22.87;;;;;;;-2.09;100.00;150840.22;5052877;28;20492;-84
2022/12/16 00:12:10;;;;;;;39.73;25.20;;;;;;;-2.11;100.00;150833.81;5067215;28;20445;-83
2022/12/16 00:14:55;;;;;;;32.57;23.20;;;;;;;-2.11;100.00;150835.09;5072244;28;20472;-83
2022/12/16 00:17:42;;;;;;;37.13;22.73;;;;;;;-2.15;100.00;150824.88;5073527;28;20960;-83
2022/12/16 00:20:27;;;;;;;33.40;22.50;;;;;;;-2.19;100.00;150813.31;5060699;28;20995;-83
2022/12/16 00:23:12;;;;;;;39.07;24.73;;;;;;;-2.19;100.00;150814.59;5066091;28;20456;-83
2022/12/16 00:25:58;;;;;;;39.23;22.47;;;;;;;-2.14;100.00;150827.41;5056647;28;20481;-84
2022/12/16 00:28:43;;;;;;;35.40;22.50;;;;;;;-2.19;100.00;150813.31;5073343;28;20414;-83
2022/12/16 00:31:29;;;;;;;38.37;24.07;;;;;;;-2.16;100.00;150822.28;5073189;28;20456;-83
2022/12/16 00:34:16;;;;;;;35.53;22.30;;;;;;;-2.17;100.00;150818.47;5058390;28;20496;-83
2022/12/16 00:37:01;;;;;;;35.73;23.10;;;;;;;-2.19;100.00;150813.31;5054688;28;20536;-83
2022/12/16 00:39:47;;;;;;;35.73;23.33;;;;;;;-2.19;100.00;150814.59;5058067;28;20567;-83
2022/12/16 00:42:32;;;;;;;35.57;22.90;;;;;;;-2.19;100.00;150813.31;5053434;28;20508;-83
2022/12/16 00:45:17;;;;;;;36.90;23.30;;;;;;;-2.19;100.00;150813.31;5058120;28;20478;-83
2022/12/16 00:48:03;;;;;;;37.50;22.07;;;;;;;-2.22;100.00;150806.91;5055495;28;20627;-83
2022/12/16 00:50:50;;;;;;;32.93;21.37;;;;;;;-2.19;100.00;150813.31;5053733;28;20912;-83
2022/12/16 00:53:37;;;;;;;41.87;24.90;;;;;;;-2.20;100.00;150810.78;5075931;28;20520;-83
2022/12/16 00:56:22;;;;;;;37.57;21.80;;;;;;;-2.16;100.00;150821.00;5073724;28;20771;-83
2022/12/16 00:59:07;;;;;;;38.50;22.87;;;;;;;-2.19;100.00;150813.31;5068860;28;20433;-83
2022/12/16 01:01:53;;;;;;;36.53;23.37;;;;;;;-2.15;100.00;150823.59;5063350;28;20972;-83
2022/12/16 01:04:38;;;;;;;32.60;22.37;;;;;;;-2.12;100.00;150832.50;5065899;28;20442;-83
2022/12/16 01:07:25;;;;;;;37.63;24.50;;;;;;;-2.10;100.00;150836.38;5062323;28;20968;-83
2022/12/16 01:10:11;;;;;;;36.33;24.43;;;;;;;-2.09;100.00;150838.97;5054812;28;20516;-83
2022/12/16 01:12:57;;;;;;;38.77;23.90;;;;;;;-2.10;100.00;150836.38;5053299;28;20605;-83
2022/12/16 01:15:42;;;;;;;35.47;23.60;;;;;;;-2.11;100.00;150835.09;5063807;28;20456;-83
2022/12/16 01:18:28;;;;;;;41.87;24.23;;;;;;;-2.14;100.00;150827.41;5074198;28;20410;-83
2022/12/16 01:21:15;;;;;;;35.40;23.40;;;;;;;-2.13;100.00;150828.69;5062165;28;20564;-83
2022/12/16 01:24:01;;;;;;;33.03;21.20;;;;;;;-2.18;100.00;150815.91;5071599;28;20527;-83
2022/12/16 01:26:46;;;;;;;35.60;22.00;;;;;;;-2.15;100.00;150824.88;5071553;28;20413;-83
2022/12/16 01:29:32;;;;;;;34.10;21.30;;;;;;;-2.07;100.00;150844.06;5073959;28;20437;-83
2022/12/16 01:32:17;;;;;;;36.37;24.50;;;;;;;-2.07;100.00;150844.06;5070189;28;20575;-82
2022/12/16 01:35:03;;;;;;;37.17;22.40;;;;;;;-2.22;100.00;150805.63;5061758;28;20507;-83
2022/12/16 01:37:48;;;;;;;34.03;21.93;;;;;;;-2.27;100.00;150792.81;5053468;28;20500;-83
2022/12/16 01:40:35;;;;;;;36.33;22.03;;;;;;;-2.20;100.00;150810.78;5052609;28;20485;-82
2022/12/16 01:43:24;;;;;;;38.00;23.37;;;;;;;-2.20;100.00;150810.78;5068335;28;20441;-82
2022/12/16 01:46:16;;;;;;;35.40;24.43;;;;;;;-2.17;100.00;150818.47;5069005;28;20466;-82
2022/12/16 01:49:05;;;;;;;35.77;20.97;;;;;;;-2.28;100.00;150790.28;5052645;28;20537;-82
2022/12/16 01:51:50;;;;;;;37.07;21.67;;;;;;;-2.23;100.00;150803.09;5069798;28;20792;-82
2022/12/16 01:54:38;;;;;;;36.57;22.60;;;;;;;-2.27;100.00;150794.13;5056117;28;20463;-82
2022/12/16 01:57:27;;;;;;;33.67;21.50;;;;;;;-2.30;100.00;150785.19;5055615;28;20409;-82
2022/12/16 02:00:14;;;;;;;37.90;23.10;;;;;;;-2.27;100.00;150792.81;5055372;28;20743;-82
2022/12/16 02:03:00;;;;;;;38.70;24.00;;;;;;;-2.26;100.00;150795.41;5066765;28;20434;-83
2022/12/16 02:05:46;;;;;;;37.03;22.60;;;;;;;-2.28;100.00;150790.28;5063928;28;20453;-82
2022/12/16 02:08:31;;;;;;;39.80;23.87;;;;;;;-2.29;100.00;150787.72;5072265;28;20471;-82
2022/12/16 02:11:35;;;;;;;35.77;22.80;;;;;;;-2.25;100.00;150799.22;5059809;28;20462;-83
2022/12/16 02:14:47;;;;;;;45.90;23.20;;;;;;;-2.27;100.00;150792.81;5063428;28;20424;-83
2022/12/16 02:17:40;;;;;;;35.80;22.97;;;;;;;-2.28;100.00;150790.28;5053945;28;20407;-82
2022/12/16 02:20:46;;;;;;;36.83;23.67;;;;;;;-2.23;100.00;150803.09;5064213;28;20845;-82
2022/12/16 02:23:56;;;;;;;38.77;24.27;;;;;;;-2.24;100.00;150800.50;5060091;28;20809;-82
2022/12/16 02:27:06;;;;;;;34.53;21.03;;;;;;;-2.26;100.00;150795.41;5055363;28;20535;-83
2022/12/16 02:30:07;;;;;;;32.50;21.03;;;;;;;-2.28;100.00;150791.59;5058471;28;20465;-83
2022/12/16 02:33:01;;;;;;;34.33;23.13;;;;;;;-2.28;100.00;150790.28;5067530;28;20476;-83
2022/12/16 02:35:50;;;;;;;34.40;20.90;;;;;;;-2.35;100.00;150772.31;5063011;28;20466;-83
2022/12/16 02:38:46;;;;;;;37.57;21.70;;;;;;;-2.33;100.00;150777.50;5058064;28;20764;-83
2022/12/16 02:41:38;;;;;;;32.83;21.30;;;;;;;-2.37;100.00;150767.22;5059205;28;20890;-83
2022/12/16 02:44:29;;;;;;;29.90;20.83;;;;;;;-2.36;100.00;150769.81;5052946;28;20918;-83
2022/12/16 02:47:14;;;;;;;38.00;23.53;;;;;;;-2.38;100.00;150765.94;5066624;28;20496;-82
2022/12/16 02:50:01;;;;;;;34.30;21.03;;;;;;;-2.34;100.00;150776.19;5051777;28;20457;-83
2022/12/16 02:52:46;;;;;;;34.80;21.80;;;;;;;-2.36;100.00;150769.81;5053529;28;20462;-82
2022/12/16 02:55:40;;;;;;;37.70;22.50;;;;;;;-2.41;100.00;150757.00;5070112;28;20794;-82
2022/12/16 02:58:28;;;;;;;34.90;21.20;;;;;;;-2.41;100.00;150758.28;5062466;28;20527;-82
2022/12/16 03:01:19;;;;;;;30.17;19.03;;;;;;;-2.36;100.00;150769.81;5070870;28;21007;-82
2022/12/16 03:04:10;;;;;;;28.43;19.90;;;;;;;-2.40;100.00;150759.53;5070502;28;20476;-83
2022/12/16 03:06:58;;;;;;;31.63;20.73;;;;;;;-2.33;100.00;150777.50;5071867;28;20437;-83
2022/12/16 03:09:43;;;;;;;30.80;20.60;;;;;;;-2.32;100.00;150781.31;5063467;28;20581;-82
2022/12/16 03:12:29;;;;;;;33.10;21.80;;;;;;;-2.34;100.00;150774.91;5067679;28;20445;-82
2022/12/16 03:15:17;;;;;;;31.53;21.17;;;;;;;-2.38;100.00;150765.94;5070414;28;20476;-82
2022/12/16 03:18:03;;;;;;;28.20;19.83;;;;;;;-2.39;100.00;150763.41;5072351;28;20437;-82
2022/12/16 03:20:52;;;;;;;32.93;21.27;;;;;;;-2.38;100.00;150764.69;5069582;28;20528;-82
2022/12/16 03:23:42;;;;;;;30.70;19.93;;;;;;;-2.41;100.00;150757.00;5064029;28;20450;-82
2022/12/16 03:26:30;;;;;;;30.53;19.53;;;;;;;-2.37;100.00;150768.50;5061997;28;20432;-81
2022/12/16 03:29:39;;;;;;;34.60;21.07;;;;;;;-2.41;100.00;150757.00;5075256;28;20924;-82
2022/12/16 03:32:30;;;;;;;32.70;20.60;;;;;;;-2.43;100.00;150751.84;5065615;28;20489;-82
2022/12/16 03:35:19;;;;;;;34.40;21.77;;;;;;;-2.44;100.00;150749.31;5055419;28;20433;-81
2022/12/16 03:38:06;;;;;;;32.73;19.43;;;;;;;-2.41;100.00;150758.28;5054478;28;20402;-82
2022/12/16 03:40:53;;;;;;;34.30;21.90;;;;;;;-2.37;100.00;150767.22;5072177;28;20473;-81
2022/12/16 03:43:39;;;;;;;33.03;19.70;;;;;;;-2.36;100.00;150769.81;5063300;28;20515;-82
2022/12/16 03:46:24;;;;;;;33.03;21.17;;;;;;;-2.35;100.00;150772.31;5055027;28;20820;-82
2022/12/16 03:49:10;;;;;;;30.10;20.30;;;;;;;-2.34;100.00;150776.19;5069019;28;20915;-82
2022/12/16 03:51:55;;;;;;;28.00;18.40;;;;;;;-2.36;100.00;150769.81;5056805;28;20434;-82
2022/12/16 03:54:40;;;;;;;31.63;19.90;;;;;;;-2.37;100.00;150767.22;5075717;28;20484;-82
2022/12/16 03:57:27;;;;;;;32.40;20.17;;;;;;;-2.36;100.00;150769.81;5074658;28;20453;-81
2022/12/16 04:00:13;;;;;;;30.73;20.47;;;;;;;-2.40;100.00;150759.53;5073813;28;20453;-82
2022/12/16 04:02:59;;;;;;;30.43;20.27;;;;;;;-2.38;100.00;150764.69;5055367;28;20496;-82
2022/12/16 04:05:45;;;;;;;33.70;19.43;;;;;;;-2.36;100.00;150771.09;5074493;28;20936;-82
2022/12/16 04:08:31;;;;;;;30.33;19.03;;;;;;;-2.41;100.00;150758.28;5075412;28;20453;-82
2022/12/16 04:30:17;;;;;;;32.50;21.40;;;;;;;-2.41;100.00;150757.00;5065595;28;20628;-81
